createdAt,value
2023-03-23T15:58:31.129Z,15.20
2023-03-23T16:01:38.478Z,15.40
2023-03-23T16:04:45.275Z,15.14
2023-03-23T16:07:51.806Z,15.48
2023-03-23T16:10:56.504Z,15.13
2023-03-23T16:14:02.074Z,15.32
2023-03-23T16:17:10.899Z,15.27
2023-03-23T16:20:22.135Z,15.23
2023-03-23T16:23:27.037Z,15.20
2023-03-23T16:26:31.605Z,15.08
2023-03-23T16:32:46.760Z,15.52
2023-03-23T16:35:51.375Z,15.21
2023-03-23T16:38:56.160Z,15.64
2023-03-23T16:42:00.754Z,15.02
2023-03-23T16:45:06.061Z,15.17
2023-03-23T16:48:11.610Z,15.09
2023-03-23T16:51:16.430Z,14.76
2023-03-23T16:54:21.349Z,14.62
2023-03-23T16:57:26.273Z,14.80
2023-03-23T17:00:31.096Z,14.81
2023-03-23T17:03:35.771Z,14.72
2023-03-23T17:06:40.371Z,14.59
2023-03-23T17:09:45.254Z,14.57
2023-03-23T17:12:49.768Z,14.47
2023-03-23T17:15:57.100Z,14.54
2023-03-23T17:19:01.900Z,14.62
2023-03-23T17:22:06.498Z,14.56
2023-03-23T17:25:11.411Z,14.32
2023-03-23T17:28:18.332Z,14.20
2023-03-23T17:31:24.544Z,14.39
2023-03-23T17:34:29.103Z,14.64
2023-03-23T17:37:33.976Z,14.80
2023-03-23T17:40:39.872Z,14.55
2023-03-23T17:43:44.577Z,14.55
2023-03-23T17:46:49.548Z,14.47
2023-03-23T17:49:54.352Z,14.40
2023-03-23T17:53:00.440Z,14.44
2023-03-23T17:56:06.582Z,14.22
2023-03-23T17:59:11.414Z,14.15
2023-03-23T18:02:18.473Z,14.28
2023-03-23T18:05:24.559Z,14.15
2023-03-23T18:08:30.125Z,13.94
2023-03-23T18:11:35.093Z,13.78
2023-03-23T18:14:40.013Z,13.90
2023-03-23T18:17:48.277Z,14.12
2023-03-23T18:21:02.207Z,13.94
2023-03-23T18:24:07.893Z,14.19
2023-03-23T18:27:12.705Z,14.30
2023-03-23T18:30:17.261Z,14.33
2023-03-23T18:33:22.401Z,14.35
2023-03-23T18:36:28.219Z,14.21
2023-03-23T18:39:33.919Z,14.16
2023-03-23T18:42:41.055Z,14.23
2023-03-23T18:45:53.644Z,13.71
2023-03-23T18:48:58.161Z,13.57
2023-03-23T18:52:03.252Z,13.92
2023-03-23T18:55:09.133Z,13.92
2023-03-23T18:58:15.393Z,14.06
2023-03-23T19:01:20.295Z,14.03
2023-03-23T19:04:25.118Z,13.89
2023-03-23T19:07:30.967Z,13.74
2023-03-23T19:10:37.188Z,13.39
2023-03-23T19:13:53.871Z,13.45
2023-03-23T19:17:07.023Z,13.47
2023-03-23T19:20:16.138Z,13.39
2023-03-23T19:23:28.515Z,13.41
2023-03-23T19:26:42.090Z,13.39
2023-03-23T19:29:46.880Z,13.39
2023-03-23T19:32:51.508Z,13.51
2023-03-23T19:36:07.279Z,13.66
2023-03-23T19:39:16.401Z,13.19
2023-03-23T19:42:21.153Z,13.21
2023-03-23T19:45:25.735Z,13.22
2023-03-23T19:48:31.131Z,13.00
2023-03-23T19:51:35.987Z,12.88
2023-03-23T19:54:41.119Z,12.67
2023-03-23T19:57:45.784Z,12.68
2023-03-23T20:00:50.775Z,12.89
2023-03-23T20:03:59.686Z,12.64
2023-03-23T20:07:07.561Z,12.55
2023-03-23T20:10:12.735Z,12.73
2023-03-23T20:13:18.642Z,12.93
2023-03-23T20:16:24.856Z,13.08
2023-03-23T20:19:29.779Z,12.90
2023-03-23T20:22:35.446Z,12.53
2023-03-23T20:25:40.171Z,12.55
2023-03-23T20:28:45.654Z,12.53
2023-03-23T20:31:52.083Z,12.48
2023-03-23T20:34:57.045Z,12.74
2023-03-23T20:38:01.680Z,12.22
2023-03-23T20:41:08.906Z,12.54
2023-03-23T20:44:15.729Z,12.35
2023-03-23T20:47:20.577Z,12.50
2023-03-23T20:50:25.224Z,12.70
2023-03-23T20:53:31.801Z,12.72
2023-03-23T20:56:39.770Z,12.72
2023-03-23T20:59:44.391Z,12.55
2023-03-23T21:02:49.753Z,12.42
2023-03-23T21:05:54.767Z,12.47
2023-03-23T21:08:59.636Z,12.33
2023-03-23T21:12:06.983Z,12.34
2023-03-23T21:15:12.701Z,12.53
2023-03-23T21:18:17.276Z,12.24
2023-03-23T21:21:22.416Z,12.35
2023-03-23T21:24:29.343Z,12.45
2023-03-23T21:27:35.114Z,12.46
2023-03-23T21:30:45.384Z,12.63
2023-03-23T21:33:50.465Z,12.57
2023-03-23T21:36:54.992Z,12.74
2023-03-23T21:39:59.726Z,12.42
2023-03-23T21:43:04.242Z,12.59
2023-03-23T21:46:09.785Z,12.17
2023-03-23T21:49:14.549Z,11.96
2023-03-23T21:52:20.732Z,12.17
2023-03-23T21:55:25.339Z,12.04
2023-03-23T21:58:30.732Z,11.93
2023-03-23T22:01:37.058Z,11.95
2023-03-23T22:04:42.297Z,11.83
2023-03-23T22:07:47.671Z,12.00
2023-03-23T22:11:00.473Z,11.69
2023-03-23T22:14:06.685Z,11.84
2023-03-23T22:17:11.767Z,11.61
2023-03-23T22:20:17.386Z,11.79
2023-03-23T22:23:22.169Z,12.05
2023-03-23T22:26:28.366Z,12.20
2023-03-23T22:29:32.946Z,12.17
2023-03-23T22:32:37.698Z,12.09
2023-03-23T22:35:42.413Z,11.97
2023-03-23T22:38:48.730Z,12.25
2023-03-23T22:41:53.355Z,11.93
2023-03-23T22:44:57.900Z,11.58
2023-03-23T22:48:04.558Z,11.29
2023-03-23T22:51:10.825Z,11.31
2023-03-23T22:54:15.601Z,11.21
2023-03-23T22:57:20.308Z,11.41
2023-03-23T23:00:24.981Z,11.19
2023-03-23T23:03:30.551Z,11.32
2023-03-23T23:06:35.526Z,11.24
2023-03-23T23:09:41.843Z,11.45
2023-03-23T23:12:47.672Z,11.20
2023-03-23T23:15:54.402Z,11.29
2023-03-23T23:18:58.928Z,11.24
2023-03-23T23:22:18.560Z,10.96
2023-03-23T23:25:24.252Z,10.99
2023-03-23T23:28:28.943Z,11.21
2023-03-23T23:31:34.580Z,11.03
2023-03-23T23:34:39.298Z,10.99
2023-03-23T23:37:43.799Z,11.13
2023-03-23T23:40:48.615Z,11.20
2023-03-23T23:43:53.760Z,10.89
2023-03-23T23:46:58.418Z,11.00
2023-03-23T23:50:03.880Z,11.35
2023-03-23T23:53:09.765Z,11.14
2023-03-23T23:56:14.481Z,10.75
2023-03-23T23:59:19.057Z,10.73
